KRDG/RDG METAR and TAF weather

Enter ICAO airport designator
Station Type Date Time Source
KRDG METAR 2019/06/26 19:54 UTC NOAA

KRDG 261954Z 27007KT 10SM FEW060 32/19 A3001 RMK AO2 SLP163 T03170194


Station Type Date Time Source
KRDG Decoded METAR 2019/06/26 19:54 UTC NOAA

READING REGIONAL AIRPORT, PA, United States (KRDG) 40-22N 075-58W 109M
Jun 26, 2019 - 03:54 PM EDT / 2019.06.26 1954 UTC
Wind: from the W (270 degrees) at 8 MPH (7 KT):0
Visibility: 10 mile(s):0
Sky conditions: mostly clear
Temperature: 89.1 F (31.7 C)
Dew Point: 66.9 F (19.4 C)
Relative Humidity: 48%
Pressure (altimeter): 30.01 in. Hg (1016 hPa)
ob: KRDG 261954Z 27007KT 10SM FEW060 32/19 A3001 RMK AO2 SLP163 T03170194
cycle: 20

Station Type Date Time Source
KRDG TAF 2019/06/26 18:27 UTC NOAA

TAF KRDG 261723Z 2618/2718 26006KT P6SM FEW050
FM270000 25004KT P6SM SCT050
FM270400 32002KT P6SM SKC
FM271600 30007KT P6SM SKC

Example: see airport list